Time;durP1;ratioP1;P1;durP2;ratioP2;P2;SDS_P1;SDS_P2;PMS_P1;PMS_P2;Temp;Humidity;BMP_temperature;BMP_pressure;BME280_temperature;BME280_humidity;BME280_pressure;Samples;Min_cycle;Max_cycle;Signal;HPM_P1;HPM_P2
2024/04/08 00:00:24;;;;;;;10.23;3.40;;;;;;;17.34;64.62;97696.03;5011398;28;20117;-76
2024/04/08 00:02:50;;;;;;;12.35;3.00;;;;;;;17.51;64.72;97723.53;5014048;28;20404;-75
2024/04/08 00:05:19;;;;;;;8.48;2.83;;;;;;;17.46;64.74;97718.16;5027495;28;20032;-76
2024/04/08 00:07:45;;;;;;;9.48;3.20;;;;;;;17.46;65.07;97715.44;5024573;28;20396;-76
2024/04/08 00:10:11;;;;;;;6.45;3.03;;;;;;;17.37;65.09;97705.53;4991596;28;20033;-76
2024/04/08 00:12:40;;;;;;;13.77;3.40;;;;;;;17.30;65.46;97703.19;5019870;28;20024;-76
2024/04/08 00:15:06;;;;;;;14.38;3.30;;;;;;;17.31;65.46;97704.84;5021051;28;20036;-76
2024/04/08 00:17:33;;;;;;;10.20;3.13;;;;;;;17.25;65.74;97692.41;5023051;28;20555;-76
2024/04/08 00:19:58;;;;;;;7.97;2.95;;;;;;;17.20;65.65;97706.09;4996024;28;20073;-76
2024/04/08 00:22:24;;;;;;;12.85;3.22;;;;;;;17.23;65.94;97708.22;5012588;28;20024;-76
2024/04/08 00:24:53;;;;;;;11.98;3.20;;;;;;;17.21;65.86;97707.72;5033412;28;20037;-76
2024/04/08 00:27:18;;;;;;;8.50;3.17;;;;;;;17.16;66.06;97694.19;5019514;28;20044;-75
2024/04/08 00:29:44;;;;;;;10.82;3.65;;;;;;;16.98;66.22;97670.56;5004976;28;20025;-76
2024/04/08 00:32:12;;;;;;;8.85;3.35;;;;;;;17.01;66.12;97676.22;5017615;28;20021;-76
2024/04/08 00:34:37;;;;;;;11.80;3.28;;;;;;;17.00;66.11;97681.97;5015185;28;20039;-76
2024/04/08 00:37:02;;;;;;;9.63;3.00;;;;;;;17.00;66.10;97685.50;5020453;28;20028;-76
2024/04/08 00:39:28;;;;;;;11.55;3.35;;;;;;;17.07;66.42;97688.66;5013337;28;20036;-75
2024/04/08 00:41:53;;;;;;;9.45;3.67;;;;;;;16.93;66.56;97673.38;5005402;28;20028;-74
2024/04/08 00:44:19;;;;;;;8.38;2.83;;;;;;;17.00;66.32;97687.41;5015804;28;20076;-75
2024/04/08 00:48:18;;;;;;;12.48;3.08;;;;;;;16.98;66.41;97681.47;5550662;25;20388;-74
2024/04/08 00:50:49;;;;;;;8.80;2.55;;;;;;;16.94;66.60;97680.44;5544275;25;19993;-73
2024/04/08 00:53:15;;;;;;;9.23;3.30;;;;;;;16.79;66.52;97650.75;5542551;25;19997;-74
2024/04/08 00:55:41;;;;;;;17.55;3.42;;;;;;;16.85;66.55;97665.91;5511268;25;20012;-75
2024/04/08 00:58:06;;;;;;;9.27;3.13;;;;;;;16.85;66.66;97665.91;5539593;25;19989;-75
2024/04/08 01:00:32;;;;;;;9.70;3.60;;;;;;;16.78;66.38;97665.50;5474913;26;19994;-74
2024/04/08 01:03:03;;;;;;;9.13;3.00;;;;;;;16.77;66.53;97670.13;5517096;25;20001;-76
2024/04/08 01:05:30;;;;;;;11.60;3.45;;;;;;;16.59;66.21;97633.69;5568903;25;19989;-76
2024/04/08 01:07:55;;;;;;;8.20;3.47;;;;;;;16.62;66.97;97645.88;5519779;25;20025;-75
2024/04/08 01:10:21;;;;;;;10.55;3.42;;;;;;;16.56;66.27;97647.06;5546582;25;20016;-75
2024/04/08 01:12:46;;;;;;;10.10;3.78;;;;;;;16.66;66.74;97665.13;5545689;25;19994;-75
2024/04/08 01:15:12;;;;;;;11.50;3.72;;;;;;;16.63;67.00;97663.00;5513493;25;20009;-75
2024/04/08 01:17:38;;;;;;;9.57;3.58;;;;;;;16.60;66.75;97664.41;5527294;25;19998;-75
2024/04/08 01:20:04;;;;;;;11.18;3.60;;;;;;;16.51;66.62;97671.59;5480284;25;20073;-75
2024/04/08 01:22:31;;;;;;;11.90;3.30;;;;;;;16.59;66.32;97684.53;5545846;25;20001;-75
2024/04/08 01:25:00;;;;;;;11.60;3.33;;;;;;;16.44;66.83;97657.56;5507199;25;20008;-76
2024/04/08 01:27:26;;;;;;;9.05;3.58;;;;;;;16.61;67.10;97689.69;5515479;25;19998;-75
2024/04/08 01:29:51;;;;;;;11.32;3.50;;;;;;;16.40;67.14;97681.81;5512423;25;20012;-75
2024/04/08 01:32:16;;;;;;;10.90;3.40;;;;;;;16.41;67.24;97726.91;5544760;25;20042;-75
2024/04/08 01:34:42;;;;;;;12.82;4.30;;;;;;;16.12;67.60;97723.50;5544816;25;20001;-75
2024/04/08 01:37:07;;;;;;;11.57;4.55;;;;;;;16.04;70.52;97764.06;5545678;25;20009;-75
2024/04/08 01:39:32;;;;;;;13.80;5.00;;;;;;;15.96;71.18;97751.94;5539197;25;20002;-75
2024/04/08 01:41:58;;;;;;;11.75;4.63;;;;;;;15.88;71.73;97755.28;5543785;25;20376;-75
2024/04/08 01:44:24;;;;;;;11.45;4.28;;;;;;;16.04;70.99;97750.47;5538454;25;19998;-76
2024/04/08 01:46:49;;;;;;;10.70;4.30;;;;;;;16.20;71.05;97779.06;5542135;25;20072;-76
2024/04/08 01:49:15;;;;;;;7.20;3.90;;;;;;;16.18;70.92;97765.78;5446529;21;20018;-76
2024/04/08 01:51:40;;;;;;;9.50;4.30;;;;;;;15.97;70.82;97742.69;5419591;26;20007;-76
2024/04/08 01:54:17;;;;;;;9.55;4.28;;;;;;;15.97;71.41;97748.13;5467325;26;20063;-76
2024/04/08 01:56:44;;;;;;;13.18;4.45;;;;;;;16.06;71.27;97770.81;5469924;26;20013;-74
2024/04/08 01:59:15;;;;;;;8.50;3.90;;;;;;;16.17;71.44;97780.50;5429243;26;20027;-74
2024/04/08 02:01:42;;;;;;;11.50;4.55;;;;;;;16.09;71.78;97788.47;5403844;26;20073;-73
2024/04/08 02:04:11;;;;;;;10.77;4.30;;;;;;;15.96;71.81;97757.38;5416374;26;20014;-73
2024/04/08 02:06:37;;;;;;;9.55;3.83;;;;;;;15.90;72.14;97728.66;5429814;26;20361;-74
2024/04/08 02:09:13;;;;;;;10.00;4.20;;;;;;;15.83;71.99;97736.34;5411196;26;20331;-73
2024/04/08 02:11:44;;;;;;;7.28;4.18;;;;;;;15.76;71.90;97733.97;5426682;26;20004;-73
2024/04/08 02:14:11;;;;;;;11.95;4.40;;;;;;;15.80;72.29;97753.19;5419142;26;20007;-74
2024/04/08 02:16:36;;;;;;;9.65;4.53;;;;;;;15.72;72.21;97718.56;5425612;26;20004;-73
2024/04/08 02:19:01;;;;;;;10.77;4.20;;;;;;;15.84;72.12;97729.81;5444571;26;20017;-73
2024/04/08 02:21:27;;;;;;;12.02;4.70;;;;;;;15.85;72.58;97731.41;5355538;26;20010;-76
2024/04/08 02:23:52;;;;;;;12.52;4.50;;;;;;;15.58;72.65;97701.34;5430432;26;20026;-74
2024/04/08 02:26:18;;;;;;;8.73;4.40;;;;;;;15.67;72.77;97699.59;5406048;26;20000;-75
2024/04/08 02:28:43;;;;;;;7.47;4.45;;;;;;;15.72;73.04;97702.25;5409273;26;19995;-75
2024/04/08 02:31:09;;;;;;;8.88;4.28;;;;;;;15.66;72.49;97684.44;5432496;26;20002;-75
2024/04/08 02:33:34;;;;;;;8.40;4.22;;;;;;;15.62;72.64;97680.66;5406886;26;20004;-75
2024/04/08 02:36:02;;;;;;;7.45;3.72;;;;;;;15.64;72.81;97694.75;5395297;26;20409;-75
2024/04/08 02:38:27;;;;;;;12.00;5.20;;;;;;;15.63;72.88;97701.28;5405391;26;20001;-74
2024/04/08 02:40:53;;;;;;;11.52;4.57;;;;;;;15.66;72.51;97692.56;5424551;26;20018;-74
2024/04/08 02:43:18;;;;;;;11.70;4.15;;;;;;;15.63;72.84;97688.53;5396162;26;20004;-76
2024/04/08 02:45:43;;;;;;;7.53;3.75;;;;;;;15.67;72.75;97694.16;5417839;26;20003;-75
2024/04/08 02:48:09;;;;;;;11.55;4.30;;;;;;;15.66;72.63;97703.44;5404407;26;20011;-74
2024/04/08 02:50:34;;;;;;;7.95;4.20;;;;;;;15.55;72.67;97685.63;5385206;26;20760;-75
2024/04/08 02:53:00;;;;;;;10.15;4.05;;;;;;;15.44;72.40;97675.94;5419074;26;19995;-74
2024/04/08 02:55:25;;;;;;;9.40;3.75;;;;;;;15.53;72.74;97688.63;5432226;26;19996;-75
2024/04/08 02:57:51;;;;;;;9.48;4.22;;;;;;;15.57;72.69;97697.00;5440315;26;20129;-74
2024/04/08 03:00:16;;;;;;;9.88;4.47;;;;;;;15.62;72.11;97702.38;5412676;26;20071;-75
2024/04/08 03:02:45;;;;;;;12.35;4.35;;;;;;;15.57;72.26;97711.38;5415431;26;20613;-74
2024/04/08 03:05:10;;;;;;;12.85;4.38;;;;;;;15.50;72.13;97701.94;5403588;26;20018;-74
2024/04/08 03:07:36;;;;;;;9.85;4.25;;;;;;;15.53;72.68;97704.09;5416625;26;19996;-75
2024/04/08 03:10:01;;;;;;;10.90;3.85;;;;;;;15.41;72.47;97673.81;5440969;26;19999;-74
2024/04/08 03:12:27;;;;;;;7.30;3.97;;;;;;;15.60;72.38;97701.84;5399922;26;20355;-74
2024/04/08 03:14:53;;;;;;;7.88;4.05;;;;;;;15.63;72.54;97698.56;5440333;26;20352;-75
2024/04/08 03:17:18;;;;;;;9.27;3.90;;;;;;;15.60;72.39;97705.38;5387965;26;20364;-75
2024/04/08 03:19:43;;;;;;;9.05;4.20;;;;;;;15.55;72.03;97707.34;5429274;26;20011;-75
2024/04/08 03:22:09;;;;;;;8.77;3.83;;;;;;;15.56;72.12;97714.38;5396574;26;20346;-75
2024/04/08 03:24:34;;;;;;;9.68;4.10;;;;;;;15.53;72.34;97704.91;5409155;26;20007;-75
2024/04/08 03:27:00;;;;;;;15.57;4.22;;;;;;;15.29;72.28;97659.81;5400076;26;20006;-73
2024/04/08 03:29:25;;;;;;;10.18;4.30;;;;;;;15.52;71.75;97691.66;5422628;26;20004;-75
2024/04/08 03:31:51;;;;;;;11.75;4.32;;;;;;;15.54;71.58;97701.09;5418157;26;20712;-74
2024/04/08 03:34:16;;;;;;;12.15;4.78;;;;;;;15.35;71.20;97669.53;5391174;26;20015;-74
2024/04/08 03:36:42;;;;;;;11.32;3.83;;;;;;;15.55;71.03;97702.72;5408919;26;20434;-75
2024/04/08 03:39:08;;;;;;;12.93;4.82;;;;;;;15.46;70.83;97671.06;5408317;26;20000;-75
2024/04/08 03:41:33;;;;;;;12.57;4.70;;;;;;;15.64;70.55;97690.13;5430915;26;20003;-76
2024/04/08 03:43:59;;;;;;;16.92;5.85;;;;;;;15.61;70.60;97689.91;5421213;26;19995;-74
2024/04/08 03:46:24;;;;;;;13.95;4.60;;;;;;;15.70;69.77;97699.84;5435886;26;19999;-75
2024/04/08 03:48:50;;;;;;;9.63;4.25;;;;;;;15.69;70.04;97697.41;5422944;26;20466;-75
2024/04/08 03:51:17;;;;;;;10.95;4.18;;;;;;;15.60;69.91;97666.56;5398907;26;20004;-76
2024/04/08 03:53:42;;;;;;;8.77;4.10;;;;;;;15.64;70.05;97673.03;5410339;26;20518;-76
2024/04/08 03:56:11;;;;;;;8.60;4.35;;;;;;;15.75;70.08;97690.84;5427492;26;20000;-74
2024/04/08 03:58:40;;;;;;;11.15;4.80;;;;;;;15.81;69.70;97695.09;5420759;26;20363;-75
2024/04/08 04:01:07;;;;;;;10.93;4.30;;;;;;;15.71;70.63;97668.06;5375991;26;20010;-74
2024/04/08 04:03:34;;;;;;;9.23;4.75;;;;;;;15.77;70.48;97677.78;5405936;26;20004;-75
2024/04/08 04:05:59;;;;;;;8.13;4.07;;;;;;;15.86;70.70;97686.88;5379135;26;20000;-74
2024/04/08 04:08:25;;;;;;;12.20;4.40;;;;;;;15.86;71.66;97693.13;5417656;26;20018;-75
2024/04/08 04:10:50;;;;;;;12.07;4.40;;;;;;;15.83;71.09;97690.16;5385350;26;20008;-75
2024/04/08 04:13:16;;;;;;;16.13;4.90;;;;;;;15.80;71.06;97699.72;5431892;26;20350;-74
2024/04/08 04:15:41;;;;;;;11.35;4.03;;;;;;;15.78;71.53;97710.06;5415983;26;20008;-74
2024/04/08 04:18:06;;;;;;;12.23;4.80;;;;;;;15.68;71.41;97707.44;5408882;26;20487;-74
2024/04/08 04:20:42;;;;;;;12.45;4.47;;;;;;;15.70;71.49;97709.88;5420441;26;20000;-75
2024/04/08 04:23:11;;;;;;;;;;;;;;;15.47;71.62;97710.69;5419905;26;20018;-75
2024/04/08 04:25:37;;;;;;;16.80;4.80;;;;;;;15.63;71.54;97714.84;5412036;26;19932;-74
2024/04/08 04:28:04;;;;;;;13.63;4.50;;;;;;;15.70;71.57;97716.13;5398993;26;20014;-75
2024/04/08 04:30:29;;;;;;;10.02;4.30;;;;;;;15.73;71.52;97709.28;5410804;26;20452;-75
2024/04/08 04:32:56;;;;;;;13.15;4.53;;;;;;;15.67;71.92;97713.16;5423810;26;20073;-75
2024/04/08 04:35:25;;;;;;;10.77;4.60;;;;;;;15.71;71.99;97722.34;5384585;26;20015;-76
2024/04/08 04:37:51;;;;;;;12.13;4.45;;;;;;;15.65;71.87;97715.38;5361107;26;20008;-75
2024/04/08 04:40:16;;;;;;;11.52;4.70;;;;;;;15.75;72.34;97739.72;5384078;26;20734;-76
2024/04/08 04:42:45;;;;;;;12.90;4.78;;;;;;;15.74;72.22;97746.22;5426156;26;20003;-74
2024/04/08 04:45:11;;;;;;;11.90;4.22;;;;;;;15.73;72.37;97752.72;5429055;26;19999;-75
2024/04/08 04:47:37;;;;;;;11.50;4.40;;;;;;;15.70;72.45;97731.59;5413252;26;20015;-74
2024/04/08 04:50:03;;;;;;;14.93;4.82;;;;;;;15.77;72.29;97742.94;5395408;26;20017;-75
2024/04/08 04:52:29;;;;;;;13.70;5.00;;;;;;;15.79;72.39;97746.16;5432447;26;20006;-75
2024/04/08 04:54:54;;;;;;;17.73;5.00;;;;;;;15.75;72.68;97729.63;5368516;26;19999;-75
2024/04/08 04:57:21;;;;;;;10.00;4.40;;;;;;;15.75;72.67;97743.19;5403958;26;20323;-75
2024/04/08 04:59:46;;;;;;;12.98;4.00;;;;;;;15.66;72.32;97725.16;5406424;26;20008;-75
2024/04/08 05:02:12;;;;;;;11.88;4.80;;;;;;;15.58;72.51;97717.63;5408020;26;20006;-76
2024/04/08 05:04:37;;;;;;;7.97;4.28;;;;;;;15.68;72.69;97734.59;5397078;26;19995;-74
2024/04/08 05:07:03;;;;;;;11.82;4.10;;;;;;;15.73;72.54;97728.28;5405200;26;20022;-76
2024/04/08 05:09:28;;;;;;;7.53;3.97;;;;;;;15.60;72.60;97726.28;5422655;26;19999;-74
2024/04/08 05:11:55;;;;;;;9.57;3.80;;;;;;;15.64;72.09;97721.88;5374626;26;20028;-74
2024/04/08 05:14:20;;;;;;;11.95;3.67;;;;;;;15.75;71.36;97734.28;5398015;26;20455;-75
2024/04/08 05:16:48;;;;;;;10.60;4.05;;;;;;;15.61;71.28;97708.91;5419974;26;20076;-74
2024/04/08 05:19:13;;;;;;;9.70;4.32;;;;;;;15.83;71.49;97728.19;5412391;26;20071;-74
2024/04/08 05:21:39;;;;;;;13.52;3.95;;;;;;;15.86;71.10;97735.75;5413286;26;19999;-75
2024/04/08 05:24:04;;;;;;;14.02;4.55;;;;;;;15.67;70.42;97705.03;5418828;26;20069;-75
2024/04/08 05:26:30;;;;;;;10.57;3.53;;;;;;;15.86;70.09;97724.91;5412755;26;20003;-74
2024/04/08 05:28:55;;;;;;;11.88;4.05;;;;;;;15.90;69.67;97725.94;5406142;26;20575;-74
2024/04/08 05:31:21;;;;;;;13.30;4.57;;;;;;;16.04;70.13;97743.16;5395069;26;20294;-72
2024/04/08 05:33:46;;;;;;;9.05;4.30;;;;;;;16.00;70.61;97736.69;5417976;26;20003;-75
2024/04/08 05:36:11;;;;;;;9.00;3.97;;;;;;;15.92;71.21;97733.81;5434608;26;20005;-75
2024/04/08 05:38:37;;;;;;;15.93;4.45;;;;;;;16.01;71.21;97734.78;5421822;26;19999;-75
2024/04/08 05:41:02;;;;;;;14.85;4.40;;;;;;;16.07;71.21;97731.72;5429930;26;19999;-75
2024/04/08 05:43:28;;;;;;;13.13;4.28;;;;;;;16.12;71.68;97739.81;5394569;26;20507;-75
2024/04/08 05:45:53;;;;;;;14.65;4.72;;;;;;;16.16;71.73;97738.13;5452135;26;20000;-75
2024/04/08 05:48:18;;;;;;;9.90;4.50;;;;;;;16.18;71.76;97732.38;5386557;26;20006;-75
2024/04/08 05:50:48;;;;;;;10.55;4.18;;;;;;;16.18;71.38;97733.19;5416997;26;20000;-76
2024/04/08 05:53:13;;;;;;;12.82;4.80;;;;;;;16.21;71.77;97727.19;5441306;26;20004;-75
2024/04/08 05:55:38;;;;;;;14.10;4.45;;;;;;;16.22;71.91;97734.22;5425416;26;20069;-75
2024/04/08 05:58:04;;;;;;;18.05;4.68;;;;;;;16.36;71.73;97748.69;5421839;26;19995;-75
2024/04/08 06:00:29;;;;;;;13.35;4.35;;;;;;;16.41;71.56;97739.66;5399844;26;20068;-75
2024/04/08 06:02:55;;;;;;;10.93;4.57;;;;;;;16.46;71.49;97740.41;5385968;26;20018;-75
2024/04/08 06:05:22;;;;;;;11.55;4.20;;;;;;;16.52;71.57;97744.69;5406151;26;19999;-73
2024/04/08 06:07:48;;;;;;;21.42;5.13;;;;;;;16.56;71.76;97740.31;5389064;26;20013;-74
2024/04/08 06:10:22;;;;;;;10.48;4.13;;;;;;;16.61;71.84;97742.16;5434800;26;20002;-75
2024/04/08 06:12:48;;;;;;;15.52;4.63;;;;;;;16.62;71.49;97753.84;5419366;26;20010;-76
2024/04/08 06:15:15;;;;;;;13.82;4.53;;;;;;;16.63;71.43;97764.41;5433845;26;20346;-75
2024/04/08 06:17:40;;;;;;;13.23;4.30;;;;;;;16.51;71.64;97764.84;5405349;26;20005;-75
2024/04/08 06:20:06;;;;;;;13.65;4.15;;;;;;;16.53;71.83;97767.25;5427594;26;19991;-75
2024/04/08 06:22:35;;;;;;;10.57;4.45;;;;;;;16.58;72.79;97772.63;5423653;26;19995;-74
2024/04/08 06:25:00;;;;;;;12.18;4.40;;;;;;;16.44;72.21;97769.00;5444342;26;20019;-75
2024/04/08 06:27:26;;;;;;;15.52;4.18;;;;;;;16.55;71.53;97776.75;5416924;26;20402;-75
2024/04/08 06:29:51;;;;;;;10.30;3.78;;;;;;;16.51;71.31;97775.72;5457338;26;20466;-75
2024/04/08 06:32:16;;;;;;;11.32;3.78;;;;;;;16.56;71.13;97770.22;5419268;26;20003;-75
2024/04/08 06:34:42;;;;;;;14.15;4.35;;;;;;;16.59;70.74;97774.28;5404352;26;20018;-74
2024/04/08 06:37:07;;;;;;;11.95;4.10;;;;;;;16.66;70.16;97776.63;5438267;26;20011;-75
2024/04/08 06:39:32;;;;;;;10.15;3.78;;;;;;;16.79;69.83;97794.91;5416208;26;20458;-76
2024/04/08 06:41:58;;;;;;;14.27;4.32;;;;;;;16.80;69.46;97772.88;5408333;26;19995;-75
2024/04/08 06:44:23;;;;;;;12.30;4.15;;;;;;;16.89;69.09;97781.16;5415010;26;20000;-75
2024/04/08 06:46:49;;;;;;;10.07;4.20;;;;;;;16.89;68.96;97759.41;5409006;26;20443;-75
2024/04/08 06:49:14;;;;;;;10.23;4.25;;;;;;;16.97;68.79;97783.22;5455862;26;20018;-74
2024/04/08 06:51:39;;;;;;;15.88;6.13;;;;;;;17.01;68.78;97770.66;5385427;26;20018;-75
2024/04/08 06:54:05;;;;;;;13.55;4.75;;;;;;;17.10;68.63;97771.59;5459822;26;20013;-76
2024/04/08 06:56:30;;;;;;;24.85;5.18;;;;;;;17.20;69.09;97777.66;5463782;26;19998;-75
2024/04/08 06:58:55;;;;;;;16.90;4.68;;;;;;;17.08;68.66;97757.47;5419767;26;20000;-75
2024/04/08 07:01:21;;;;;;;16.50;4.07;;;;;;;17.21;68.18;97773.03;5414070;26;20000;-76
2024/04/08 07:03:47;;;;;;;13.15;4.53;;;;;;;17.22;68.58;97774.66;5415803;26;20506;-75
2024/04/08 07:06:13;;;;;;;12.80;4.38;;;;;;;17.25;68.44;97776.78;5449732;26;20015;-75
2024/04/08 07:08:38;;;;;;;15.43;4.70;;;;;;;17.04;67.96;97742.84;5415196;26;20459;-75
2024/04/08 07:11:04;;;;;;;18.35;5.07;;;;;;;17.26;67.67;97767.53;5439637;26;19999;-75
2024/04/08 07:13:29;;;;;;;15.63;4.90;;;;;;;17.09;68.25;97745.47;5414687;26;20358;-74
2024/04/08 07:15:55;;;;;;;9.27;4.15;;;;;;;17.10;71.16;97763.44;5440654;26;19998;-76
2024/04/08 07:18:22;;;;;;;14.82;4.97;;;;;;;17.20;71.24;97771.41;5415084;26;20043;-74
2024/04/08 07:20:47;;;;;;;11.93;4.25;;;;;;;17.09;73.07;97759.09;5435481;26;20014;-76
2024/04/08 07:23:12;;;;;;;9.98;3.85;;;;;;;17.23;73.43;97771.63;5414880;26;20000;-77
2024/04/08 07:25:38;;;;;;;11.65;3.97;;;;;;;17.17;73.48;97756.50;5403657;26;20013;-76
2024/04/08 07:28:03;;;;;;;10.73;4.93;;;;;;;17.23;73.19;97754.50;5435652;26;20013;-76
2024/04/08 07:30:29;;;;;;;11.50;4.88;;;;;;;17.38;74.07;97778.75;5392120;26;19999;-76
2024/04/08 07:32:55;;;;;;;12.95;4.50;;;;;;;17.39;73.75;97753.13;5451680;26;20495;-76
2024/04/08 07:35:21;;;;;;;13.35;4.82;;;;;;;17.53;73.67;97769.53;5429660;26;20012;-76
2024/04/08 07:37:47;;;;;;;19.42;5.10;;;;;;;17.68;73.30;97753.72;5421268;26;20458;-76
2024/04/08 07:40:12;;;;;;;14.25;4.97;;;;;;;17.89;70.72;97770.50;5405298;26;20076;-76
2024/04/08 07:42:38;;;;;;;20.17;4.97;;;;;;;18.01;68.31;97759.91;5417038;26;20058;-76
2024/04/08 07:45:03;;;;;;;15.98;4.43;;;;;;;18.17;67.04;97753.03;5440224;26;20018;-76
2024/04/08 07:47:29;;;;;;;9.38;4.07;;;;;;;18.32;64.88;97749.97;5414832;26;20354;-75
2024/04/08 07:49:55;;;;;;;11.77;4.25;;;;;;;18.55;63.56;97753.63;5424459;21;20007;-72
2024/04/08 07:52:20;;;;;;;15.73;5.18;;;;;;;18.77;63.23;97766.50;5415499;26;19999;-72
2024/04/08 07:54:46;;;;;;;14.65;4.45;;;;;;;18.93;61.86;97768.56;5380697;26;20010;-72
2024/04/08 07:57:11;;;;;;;12.23;3.40;;;;;;;19.01;60.68;97756.94;5412793;26;20460;-72
2024/04/08 07:59:37;;;;;;;10.15;4.05;;;;;;;19.17;60.13;97760.91;5360104;26;20015;-73
2024/04/08 08:02:02;;;;;;;10.75;3.45;;;;;;;19.31;59.20;97755.38;5408042;26;20004;-72
2024/04/08 08:04:28;;;;;;;9.68;3.55;;;;;;;19.53;58.97;97769.03;5405000;26;19999;-72
2024/04/08 08:06:53;;;;;;;7.55;3.05;;;;;;;19.66;57.78;97768.16;5408685;26;19996;-73
2024/04/08 08:09:18;;;;;;;10.45;3.20;;;;;;;19.82;57.28;97765.81;5390833;26;20454;-72
2024/04/08 08:11:44;;;;;;;9.60;3.00;;;;;;;19.94;57.06;97757.81;5404801;26;20074;-73
2024/04/08 08:14:09;;;;;;;8.48;2.90;;;;;;;20.15;55.83;97764.34;5355159;26;19996;-72
2024/04/08 08:16:35;;;;;;;8.70;3.10;;;;;;;20.26;54.98;97760.22;5415494;26;19999;-72
2024/04/08 08:19:00;;;;;;;8.93;3.45;;;;;;;20.41;54.25;97770.72;5415316;26;19995;-73
2024/04/08 08:21:25;;;;;;;10.18;3.05;;;;;;;20.35;53.86;97741.13;5414393;26;20077;-73
2024/04/08 08:23:51;;;;;;;10.60;2.85;;;;;;;20.64;53.40;97765.94;5415382;26;19995;-72
2024/04/08 08:26:16;;;;;;;10.38;2.90;;;;;;;20.72;53.53;97759.69;5403813;26;20058;-73
2024/04/08 08:28:42;;;;;;;8.25;3.10;;;;;;;20.90;52.96;97763.22;5408644;26;20030;-72
2024/04/08 08:31:07;;;;;;;6.28;2.72;;;;;;;21.03;52.25;97762.25;5404744;26;19997;-71
2024/04/08 08:33:32;;;;;;;7.22;2.90;;;;;;;21.06;52.03;97750.69;5406472;26;20008;-72
2024/04/08 08:35:58;;;;;;;13.15;3.13;;;;;;;21.21;52.00;97758.44;5415481;26;20003;-72
2024/04/08 08:38:23;;;;;;;9.68;3.15;;;;;;;21.25;51.74;97751.97;5415232;26;20000;-72
2024/04/08 08:41:04;;;;;;;10.60;2.80;;;;;;;21.45;51.24;97749.69;5412444;26;20004;-72
2024/04/08 08:43:30;;;;;;;8.60;2.80;;;;;;;21.66;51.08;97759.63;5413735;26;20003;-72
2024/04/08 08:45:56;;;;;;;7.82;2.40;;;;;;;21.75;51.14;97752.19;5411818;26;20000;-73
2024/04/08 08:48:21;;;;;;;7.72;2.58;;;;;;;21.84;50.00;97755.72;5415098;26;20014;-72
2024/04/08 08:50:47;;;;;;;9.32;2.80;;;;;;;21.86;49.83;97745.25;5412099;26;20505;-73
2024/04/08 08:53:13;;;;;;;8.07;2.88;;;;;;;21.88;49.15;97734.75;5413296;26;19996;-72
2024/04/08 08:55:38;;;;;;;13.15;3.22;;;;;;;21.99;49.14;97755.19;5406356;26;20048;-73
2024/04/08 08:58:06;;;;;;;8.32;2.72;;;;;;;22.00;47.66;97732.13;5401732;26;20032;-74
2024/04/08 09:00:31;;;;;;;10.95;3.08;;;;;;;22.23;48.37;97745.56;5406925;26;20073;-72
2024/04/08 09:02:57;;;;;;;8.20;2.65;;;;;;;22.27;49.20;97732.78;5401645;26;20003;-72
2024/04/08 09:05:24;;;;;;;9.82;3.20;;;;;;;22.36;49.06;97744.50;5384525;26;20327;-72
2024/04/08 09:07:49;;;;;;;7.00;2.95;;;;;;;22.51;48.59;97741.22;5411538;26;20000;-72
2024/04/08 09:10:15;;;;;;;8.98;2.90;;;;;;;22.60;47.06;97745.53;5409549;26;20015;-72
2024/04/08 09:12:43;;;;;;;10.48;3.05;;;;;;;22.72;47.32;97746.75;5412578;26;20000;-72
2024/04/08 09:15:12;;;;;;;11.68;3.25;;;;;;;22.79;46.64;97738.78;5418177;26;20007;-72
2024/04/08 09:17:38;;;;;;;11.50;2.53;;;;;;;22.96;46.99;97739.47;5416142;26;19999;-72
2024/04/08 09:20:04;;;;;;;10.10;3.05;;;;;;;23.01;46.45;97733.75;5417448;26;20076;-72
2024/04/08 09:22:31;;;;;;;7.88;2.80;;;;;;;23.07;45.42;97732.41;5418018;26;20003;-72
2024/04/08 09:24:57;;;;;;;7.50;2.63;;;;;;;23.18;44.88;97741.84;5385448;26;19996;-73
2024/04/08 09:27:23;;;;;;;9.38;2.80;;;;;;;23.23;45.25;97733.41;5417706;26;20021;-72
2024/04/08 09:29:48;;;;;;;9.65;2.78;;;;;;;23.30;44.52;97725.41;5411878;26;20004;-72
2024/04/08 09:32:14;;;;;;;10.70;2.97;;;;;;;23.38;44.75;97707.28;5410300;26;20000;-72
2024/04/08 09:34:41;;;;;;;13.48;3.40;;;;;;;23.51;45.43;97725.38;5405390;26;20000;-72
2024/04/08 09:37:08;;;;;;;9.18;2.78;;;;;;;23.62;44.46;97728.53;5412258;26;20011;-72
2024/04/08 09:39:34;;;;;;;12.20;2.80;;;;;;;23.76;44.24;97737.22;5379438;26;20467;-72
2024/04/08 09:42:00;;;;;;;11.20;2.67;;;;;;;23.83;43.99;97726.47;5415541;26;20000;-72
2024/04/08 09:44:30;;;;;;;6.25;2.60;;;;;;;23.89;43.63;97725.94;5401124;26;20022;-72
2024/04/08 09:46:57;;;;;;;8.43;2.90;;;;;;;23.92;43.99;97713.44;5414275;26;20003;-72
2024/04/08 09:49:23;;;;;;;6.70;2.60;;;;;;;24.11;44.51;97721.16;5408641;26;20015;-73
2024/04/08 09:51:50;;;;;;;8.00;2.78;;;;;;;24.18;43.32;97719.44;5412157;26;19999;-71
2024/04/08 09:54:15;;;;;;;11.00;2.55;;;;;;;24.29;43.32;97717.84;5408062;26;20012;-73
2024/04/08 09:56:41;;;;;;;8.48;3.05;;;;;;;24.44;43.49;97714.38;5412108;26;20076;-72
2024/04/08 09:59:20;;;;;;;8.60;3.10;;;;;;;24.51;42.64;97720.09;5410274;26;20004;-73
2024/04/08 10:01:46;;;;;;;10.55;3.00;;;;;;;24.47;41.69;97710.94;5413527;26;20534;-72
2024/04/08 10:04:15;;;;;;;8.85;2.90;;;;;;;24.56;43.98;97705.28;5415863;26;19999;-73
2024/04/08 10:06:42;;;;;;;8.38;3.10;;;;;;;24.66;41.00;97694.63;5380567;26;20428;-72
2024/04/08 10:09:09;;;;;;;9.05;3.00;;;;;;;24.78;40.36;97699.31;5417095;26;20007;-72
2024/04/08 10:11:35;;;;;;;20.70;3.33;;;;;;;24.87;39.45;97699.16;5404842;26;20412;-73
2024/04/08 10:14:00;;;;;;;12.77;2.78;;;;;;;24.90;38.41;97690.22;5400432;26;20000;-73
2024/04/08 10:16:27;;;;;;;13.50;3.45;;;;;;;25.02;38.03;97690.16;5409493;26;20507;-73
2024/04/08 10:18:56;;;;;;;10.90;3.00;;;;;;;25.12;38.71;97695.16;5367860;26;20482;-73
2024/04/08 10:21:23;;;;;;;12.82;2.90;;;;;;;25.15;37.54;97677.94;5385069;26;20018;-72
2024/04/08 10:23:55;;;;;;;10.18;3.00;;;;;;;25.20;37.27;97672.97;5415140;26;20011;-73
2024/04/08 10:26:25;;;;;;;12.27;2.92;;;;;;;25.26;37.69;97671.56;5417170;26;20007;-73
2024/04/08 10:28:51;;;;;;;10.40;2.97;;;;;;;25.28;38.05;97671.19;5385442;26;20008;-73
2024/04/08 10:31:19;;;;;;;12.27;2.75;;;;;;;25.35;37.84;97671.38;5378617;26;20015;-72
2024/04/08 10:33:45;;;;;;;10.02;2.42;;;;;;;25.41;38.13;97658.97;5395639;26;20452;-72
2024/04/08 10:36:10;;;;;;;7.75;2.25;;;;;;;25.48;38.11;97666.66;5362637;26;20018;-72
2024/04/08 10:38:36;;;;;;;12.43;3.35;;;;;;;25.57;39.42;97665.31;5407351;26;20014;-72
2024/04/08 10:41:08;;;;;;;11.23;2.78;;;;;;;25.73;37.23;97671.66;5413736;26;20013;-72
2024/04/08 10:43:34;;;;;;;8.55;2.28;;;;;;;25.83;38.50;97667.56;5416476;26;20014;-72
2024/04/08 10:46:02;;;;;;;9.23;2.53;;;;;;;25.88;37.33;97662.53;5399734;26;20035;-72
2024/04/08 10:48:27;;;;;;;9.00;2.38;;;;;;;25.92;36.04;97652.41;5411865;26;20475;-71
2024/04/08 10:50:53;;;;;;;10.85;2.83;;;;;;;26.01;36.51;97666.03;5383876;26;20004;-72
2024/04/08 10:53:18;;;;;;;9.23;2.15;;;;;;;26.06;35.60;97663.00;5414977;26;20024;-74
2024/04/08 10:55:44;;;;;;;13.63;2.88;;;;;;;26.13;36.71;97662.38;5416633;26;20003;-71
2024/04/08 10:58:11;;;;;;;7.88;2.45;;;;;;;26.19;36.36;97660.94;5379285;26;19996;-72
2024/04/08 11:00:36;;;;;;;7.63;2.22;;;;;;;26.33;35.19;97666.78;5437218;26;20409;-74
2024/04/08 11:03:02;;;;;;;10.80;2.67;;;;;;;26.41;35.39;97657.53;5414757;26;20003;-72
2024/04/08 11:05:27;;;;;;;10.73;2.63;;;;;;;26.48;35.20;97652.16;5408897;26;20451;-73
2024/04/08 11:07:53;;;;;;;11.02;2.50;;;;;;;26.53;34.44;97660.97;5367531;26;20073;-73
2024/04/08 11:10:18;;;;;;;8.95;2.70;;;;;;;26.59;34.95;97647.66;5413628;26;20004;-72
2024/04/08 11:12:44;;;;;;;15.27;3.25;;;;;;;26.67;34.83;97660.47;5410891;26;20000;-73
2024/04/08 11:15:10;;;;;;;9.25;2.97;;;;;;;26.54;34.50;97650.69;5414614;26;20000;-72
2024/04/08 11:17:36;;;;;;;9.40;2.75;;;;;;;26.54;36.97;97661.75;5380910;26;20000;-72
2024/04/08 11:20:03;;;;;;;14.10;3.25;;;;;;;26.41;36.28;97646.47;5413134;26;20000;-73
2024/04/08 11:22:28;;;;;;;9.93;3.20;;;;;;;26.64;37.20;97650.94;5416133;26;20064;-73
2024/04/08 11:24:54;;;;;;;13.00;2.83;;;;;;;26.91;37.08;97643.63;5412319;26;20012;-73